aviador You're here:

KBHB Decoded Metar

BAR HARBOR in ME, USA
Report Time2017-11-23 13:56:00
UTC Time2017-11-23 14:54:05
Flight Rules vfr VFR
Wind300° at 09 Gusting to 14 kt
W.Decomp.*RWY 35: 7.7 kt HW 4.6 kt LCW
RWY 04: 1.4 kt HW 8.9 kt LCW
W.Rank300° ranks 11
Current wind is above 300° avg. (6.5)
Visibility9999 m
Phenomena:N/A
Clouds:N/A
Expected CloudBase > 2,400 ft AGL from Temp-Dew spread
CeilingNone
Temp-1°C (ISA -16)
Dew Point-7°C (64% RH)
AAT-7.0°C
QNH1014 hPa
Density Alt-1,837 ft
Elevation85 ft
Report Wrong Elevation
Raw Report
KBHB 231356Z AUTO 30009G14KT 260V340 10SM CLR M01/M07 A2995 RMK
AO2 SLP146 T10111072 FZRANO PNO $=

Extra information for KBHB:More info

Metar Taf Metar & Taf Last 4 Metars F.Rules Stats Wind Profile Meteogram Temp Stats Airport Information Weather charts Add Link Nearby VenuesMetar ALERT Operation Metar Decoded Social comments

AIRNAV info for KBHB